Time;durP1;ratioP1;P1;durP2;ratioP2;P2;SDS_P1;SDS_P2;PMS_P1;PMS_P2;Temp;Humidity;BMP_temperature;BMP_pressure;BME280_temperature;BME280_humidity;BME280_pressure;Samples;Min_cycle;Max_cycle;Signal;HPM_P1;HPM_P2
2024/02/10 00:00:41;;;;;;;24.83;9.17;;;10.30;98.00;;;;;;5094703;28;20951;-70
2024/02/10 00:03:14;;;;;;;20.40;8.33;;;10.40;98.00;;;;;;5094908;28;20486;-69
2024/02/10 00:05:45;;;;;;;19.00;8.60;;;10.30;98.00;;;;;;5094482;28;20484;-69
2024/02/10 00:08:12;;;;;;;26.23;8.77;;;10.30;98.00;;;;;;5094140;28;20455;-68
2024/02/10 00:10:41;;;;;;;19.73;9.00;;;10.30;98.00;;;;;;5094595;28;20530;-68
2024/02/10 00:13:12;;;;;;;16.73;7.93;;;10.30;98.00;;;;;;5094553;28;20459;-68
2024/02/10 00:15:40;;;;;;;20.17;9.07;;;10.30;98.00;;;;;;5094217;28;20978;-68
2024/02/10 00:18:10;;;;;;;24.80;8.93;;;10.40;98.00;;;;;;5094448;28;20951;-69
2024/02/10 00:20:39;;;;;;;19.43;8.27;;;10.30;98.00;;;;;;5094120;28;20479;-68
2024/02/10 00:23:09;;;;;;;17.63;8.70;;;10.20;98.00;;;;;;5094248;28;20486;-68
2024/02/10 00:25:38;;;;;;;24.50;9.50;;;10.20;98.00;;;;;;5094006;28;20817;-68
2024/02/10 00:28:11;;;;;;;18.60;8.47;;;10.20;98.00;;;;;;5076272;28;20444;-69
2024/02/10 00:30:40;;;;;;;19.13;8.60;;;10.20;98.00;;;;;;5093719;28;20525;-69
2024/02/10 00:33:08;;;;;;;17.40;8.40;;;10.10;98.00;;;;;;5093927;28;20612;-68
2024/02/10 00:35:37;;;;;;;18.73;8.53;;;10.20;98.00;;;;;;5093802;28;20455;-68
2024/02/10 00:38:07;;;;;;;17.40;8.33;;;10.40;98.00;;;;;;5093924;28;20451;-69
2024/02/10 00:40:34;;;;;;;18.50;8.53;;;10.30;98.00;;;;;;5072559;28;20463;-68
2024/02/10 00:43:04;;;;;;;16.67;7.90;;;10.40;98.00;;;;;;5073526;28;20483;-68
2024/02/10 00:45:31;;;;;;;18.60;8.43;;;10.40;98.00;;;;;;5073501;28;20455;-68
2024/02/10 00:48:02;;;;;;;17.90;8.77;;;10.30;98.00;;;;;;5073487;28;20477;-68
2024/02/10 00:50:30;;;;;;;17.43;8.13;;;10.40;98.00;;;;;;5073413;28;20536;-68
2024/02/10 00:52:57;;;;;;;19.53;8.10;;;10.40;98.00;;;;;;5073633;28;20466;-68
2024/02/10 00:55:30;;;;;;;17.93;8.23;;;10.30;98.00;;;;;;5073631;28;20445;-68
2024/02/10 00:58:06;;;;;;;15.30;7.50;;;10.20;98.00;;;;;;5073597;28;20450;-68
2024/02/10 01:00:34;;;;;;;18.10;8.13;;;10.20;98.00;;;;;;5073498;28;20946;-69
2024/02/10 01:03:08;;;;;;;16.20;8.00;;;10.20;98.00;;;;;;5073083;28;20511;-69
2024/02/10 01:05:42;;;;;;;19.77;8.57;;;10.20;98.00;;;;;;5073133;28;20453;-68
2024/02/10 01:08:10;;;;;;;22.97;8.80;;;10.30;98.00;;;;;;5073373;28;20939;-69
2024/02/10 01:10:39;;;;;;;17.73;8.10;;;10.20;98.00;;;;;;5073318;28;20455;-69
2024/02/10 01:13:06;;;;;;;16.50;7.57;;;10.30;98.00;;;;;;5073355;28;20498;-69
2024/02/10 01:15:33;;;;;;;18.80;8.37;;;10.40;98.00;;;;;;5072845;28;20464;-69
2024/02/10 01:18:01;;;;;;;23.00;9.37;;;10.50;98.00;;;;;;5072554;28;20453;-69
2024/02/10 01:20:29;;;;;;;19.20;8.50;;;10.40;98.00;;;;;;5072794;28;20457;-69
2024/02/10 01:22:59;;;;;;;17.10;8.00;;;10.30;98.00;;;;;;5072350;28;20479;-69
2024/02/10 01:25:27;;;;;;;16.00;7.53;;;10.20;98.00;;;;;;5072266;28;20547;-69
2024/02/10 01:27:55;;;;;;;16.73;7.73;;;10.20;98.00;;;;;;5072576;28;20534;-69
2024/02/10 01:30:22;;;;;;;18.27;8.60;;;10.10;98.00;;;;;;5072408;28;20471;-69
2024/02/10 01:32:50;;;;;;;18.00;8.43;;;10.10;98.00;;;;;;5072225;28;20462;-69
2024/02/10 01:35:18;;;;;;;22.40;9.43;;;10.00;98.00;;;;;;5070601;28;20454;-69
2024/02/10 01:37:49;;;;;;;20.60;9.00;;;10.00;98.00;;;;;;5072064;28;20576;-69
2024/02/10 01:40:17;;;;;;;18.03;8.07;;;10.00;98.00;;;;;;5072229;28;20566;-69
2024/02/10 01:42:45;;;;;;;19.60;8.37;;;10.00;98.00;;;;;;5070749;28;20511;-69
2024/02/10 01:45:13;;;;;;;17.13;8.20;;;10.00;98.00;;;;;;5071739;28;21019;-69
2024/02/10 01:47:42;;;;;;;19.63;8.27;;;10.00;98.00;;;;;;5071738;28;20885;-69
2024/02/10 01:50:10;;;;;;;17.97;8.00;;;10.00;98.00;;;;;;5071984;28;20454;-69
2024/02/10 01:52:39;;;;;;;22.73;8.63;;;9.90;98.00;;;;;;5072037;28;20457;-70
2024/02/10 01:55:10;;;;;;;18.13;7.27;;;9.90;98.00;;;;;;5072034;28;20500;-69
2024/02/10 01:57:38;;;;;;;14.83;7.33;;;10.00;98.00;;;;;;5071748;28;20477;-69
2024/02/10 02:00:06;;;;;;;18.50;8.37;;;10.00;98.00;;;;;;5071823;28;20478;-69
2024/02/10 02:02:34;;;;;;;19.60;8.40;;;10.00;98.00;;;;;;5070697;28;20948;-69
2024/02/10 02:05:01;;;;;;;17.80;8.17;;;9.90;98.00;;;;;;5071783;28;20463;-69
2024/02/10 02:07:30;;;;;;;19.73;8.13;;;9.90;98.00;;;;;;5071798;28;20874;-69
2024/02/10 02:10:11;;;;;;;15.97;6.67;;;9.80;98.00;;;;;;5071691;28;20856;-69
2024/02/10 02:12:48;;;;;;;18.37;7.57;;;9.80;98.00;;;;;;5070491;28;20828;-69
2024/02/10 02:15:17;;;;;;;17.73;7.23;;;9.90;98.00;;;;;;5071864;28;20910;-69
2024/02/10 02:17:44;;;;;;;14.53;7.43;;;9.90;98.00;;;;;;5071624;28;20981;-69
2024/02/10 02:20:14;;;;;;;17.30;7.53;;;9.90;98.00;;;;;;5070951;28;20526;-69
2024/02/10 02:22:48;;;;;;;16.83;7.07;;;9.90;98.00;;;;;;5071520;28;20520;-69
2024/02/10 02:25:15;;;;;;;16.00;7.00;;;9.80;98.00;;;;;;5071687;28;20501;-69
2024/02/10 02:27:42;;;;;;;18.57;8.00;;;9.80;98.00;;;;;;5053887;28;20460;-69
2024/02/10 02:30:10;;;;;;;13.73;6.80;;;9.70;98.00;;;;;;5071471;28;20961;-69
2024/02/10 02:32:37;;;;;;;12.97;6.57;;;9.70;98.00;;;;;;5071564;28;21093;-69
2024/02/10 02:35:09;;;;;;;15.63;6.87;;;9.70;98.00;;;;;;5071595;28;20972;-69
2024/02/10 02:37:37;;;;;;;15.17;6.93;;;9.70;98.00;;;;;;5071461;28;20550;-69
2024/02/10 02:40:07;;;;;;;13.83;6.40;;;9.70;98.00;;;;;;5071475;28;20480;-69
2024/02/10 02:42:34;;;;;;;14.60;6.27;;;9.60;98.00;;;;;;5070750;28;20456;-69
2024/02/10 02:45:05;;;;;;;12.13;5.43;;;9.60;98.00;;;;;;5071091;28;20485;-69
2024/02/10 02:47:34;;;;;;;12.80;5.70;;;9.60;98.00;;;;;;5071110;28;20960;-69
2024/02/10 02:50:02;;;;;;;14.50;6.67;;;9.60;98.00;;;;;;5071215;28;20935;-69
2024/02/10 02:52:31;;;;;;;13.47;5.97;;;9.70;98.00;;;;;;5070915;28;20523;-69
2024/02/10 02:54:59;;;;;;;14.23;6.67;;;9.80;98.00;;;;;;5071435;28;20473;-69
2024/02/10 02:57:33;;;;;;;14.67;6.80;;;9.70;98.00;;;;;;5071398;28;20508;-69
2024/02/10 03:00:01;;;;;;;14.17;6.40;;;9.80;98.00;;;;;;5071583;28;20510;-69
2024/02/10 03:02:30;;;;;;;14.93;6.30;;;9.70;98.00;;;;;;5071692;28;20583;-69
2024/02/10 03:04:57;;;;;;;13.37;6.23;;;9.80;98.00;;;;;;5071407;28;20484;-69
2024/02/10 03:07:27;;;;;;;14.47;6.80;;;9.70;98.00;;;;;;5071099;28;20453;-69
2024/02/10 03:09:55;;;;;;;14.47;6.50;;;9.70;98.00;;;;;;5071611;28;20448;-69
2024/02/10 03:12:22;;;;;;;11.57;5.90;;;9.60;98.00;;;;;;5070168;28;20444;-69
2024/02/10 03:14:50;;;;;;;17.57;7.10;;;9.50;98.00;;;;;;5070970;28;20983;-69
2024/02/10 03:17:17;;;;;;;14.37;6.33;;;9.50;98.00;;;;;;5070967;28;20815;-69
2024/02/10 03:19:46;;;;;;;14.63;6.67;;;9.40;98.00;;;;;;5071027;28;20450;-69
2024/02/10 03:22:13;;;;;;;16.53;6.70;;;9.40;98.00;;;;;;5070986;28;20455;-69
2024/02/10 03:24:48;;;;;;;13.57;5.70;;;9.30;98.00;;;;;;5070863;28;20920;-69
2024/02/10 03:27:15;;;;;;;14.27;6.03;;;9.20;98.00;;;;;;5071179;28;20545;-69
2024/02/10 03:29:46;;;;;;;13.87;6.17;;;9.30;98.00;;;;;;5071007;28;20489;-69
2024/02/10 03:32:15;;;;;;;13.80;6.17;;;9.30;98.00;;;;;;5073583;28;20883;-69
2024/02/10 03:34:43;;;;;;;15.10;5.77;;;9.20;98.00;;;;;;5074260;28;20453;-69
2024/02/10 03:37:12;;;;;;;16.07;6.53;;;9.40;98.00;;;;;;5074234;28;20547;-69
2024/02/10 03:39:39;;;;;;;19.80;7.20;;;9.50;98.00;;;;;;5074121;28;20885;-69
2024/02/10 03:42:07;;;;;;;13.63;5.70;;;9.40;98.00;;;;;;5074546;28;20455;-69
2024/02/10 03:44:34;;;;;;;10.90;5.50;;;9.30;98.00;;;;;;5074165;28;20494;-69
2024/02/10 03:47:01;;;;;;;12.70;6.30;;;9.30;98.00;;;;;;5074389;28;20455;-69
2024/02/10 03:49:30;;;;;;;13.87;6.40;;;9.10;98.00;;;;;;5073871;28;20452;-69
2024/02/10 03:51:57;;;;;;;14.70;6.40;;;9.00;98.00;;;;;;5074258;28;20960;-69
2024/02/10 03:54:24;;;;;;;15.03;6.60;;;9.00;98.00;;;;;;5074246;28;20464;-69
2024/02/10 03:56:52;;;;;;;15.27;6.10;;;9.00;98.00;;;;;;5074174;28;20451;-69
2024/02/10 03:59:19;;;;;;;13.20;5.57;;;8.90;98.00;;;;;;5073704;28;20510;-69
2024/02/10 04:01:47;;;;;;;15.47;6.57;;;8.90;98.00;;;;;;5074060;28;20444;-69
2024/02/10 04:04:14;;;;;;;12.43;5.90;;;8.90;98.00;;;;;;5073859;28;20485;-69
2024/02/10 04:06:46;;;;;;;23.40;6.73;;;8.90;98.00;;;;;;5074078;28;20891;-69
2024/02/10 04:09:13;;;;;;;12.17;5.90;;;9.00;98.00;;;;;;5074027;28;20483;-69
2024/02/10 04:11:40;;;;;;;13.87;6.37;;;9.10;98.00;;;;;;5073963;28;20460;-69
2024/02/10 04:14:07;;;;;;;14.90;6.07;;;9.10;98.00;;;;;;5073883;28;20954;-69
2024/02/10 04:16:41;;;;;;;13.30;5.90;;;9.10;98.00;;;;;;5073866;28;20962;-69
2024/02/10 04:19:08;;;;;;;11.63;5.90;;;9.10;98.00;;;;;;5073789;28;20510;-69
2024/02/10 04:21:38;;;;;;;11.23;5.63;;;9.10;98.00;;;;;;5073763;28;20456;-69
2024/02/10 04:24:07;;;;;;;15.20;6.97;;;9.10;98.00;;;;;;5073833;28;20484;-69
2024/02/10 04:26:35;;;;;;;14.70;5.60;;;9.20;98.00;;;;;;5073715;28;20461;-69
2024/02/10 04:29:02;;;;;;;15.03;6.37;;;9.30;98.00;;;;;;5073834;28;20452;-69
2024/02/10 04:31:29;;;;;;;13.57;6.27;;;9.30;98.00;;;;;;5073660;28;20451;-69
2024/02/10 04:33:56;;;;;;;14.03;6.17;;;9.10;98.00;;;;;;5073852;28;20481;-69
2024/02/10 04:36:24;;;;;;;12.30;5.93;;;9.10;98.00;;;;;;5071804;28;20464;-69
2024/02/10 04:38:51;;;;;;;14.27;6.00;;;9.00;98.00;;;;;;5073505;28;20459;-69
2024/02/10 04:41:19;;;;;;;15.63;7.00;;;9.00;98.00;;;;;;5073531;28;20952;-69
2024/02/10 04:43:46;;;;;;;17.30;7.47;;;8.90;98.00;;;;;;5073110;28;20827;-69
2024/02/10 04:46:16;;;;;;;14.77;6.63;;;8.80;98.00;;;;;;5073514;28;20515;-69
2024/02/10 04:48:43;;;;;;;12.60;6.10;;;8.80;98.00;;;;;;5073364;28;20449;-69
2024/02/10 04:51:11;;;;;;;15.10;6.60;;;8.80;98.00;;;;;;5073441;28;20449;-69
2024/02/10 04:53:38;;;;;;;15.00;6.30;;;8.90;98.00;;;;;;5073545;28;20449;-69
2024/02/10 04:56:07;;;;;;;12.87;6.27;;;8.90;98.00;;;;;;5073374;28;20452;-69
2024/02/10 04:58:35;;;;;;;15.27;6.33;;;8.80;98.00;;;;;;5073124;28;20448;-69
2024/02/10 05:01:02;;;;;;;13.17;6.00;;;8.70;98.00;;;;;;5073312;28;20981;-69
2024/02/10 05:03:30;;;;;;;15.03;6.70;;;8.70;98.00;;;;;;5073072;28;20822;-69
2024/02/10 05:05:58;;;;;;;15.17;7.10;;;8.80;98.00;;;;;;5072635;28;20884;-69
2024/02/10 05:08:25;;;;;;;20.80;7.70;;;8.80;98.00;;;;;;5089184;28;20478;-69
2024/02/10 05:10:52;;;;;;;18.47;7.27;;;8.80;98.00;;;;;;5091846;28;20449;-70
2024/02/10 05:13:21;;;;;;;19.33;8.07;;;8.80;98.00;;;;;;5092628;28;20968;-69
2024/02/10 05:15:49;;;;;;;16.97;7.33;;;8.80;98.00;;;;;;5074904;28;20466;-68
2024/02/10 05:18:16;;;;;;;16.83;7.13;;;8.80;98.00;;;;;;5092615;28;20981;-69
2024/02/10 05:20:43;;;;;;;13.80;6.23;;;8.90;98.00;;;;;;5092476;28;20474;-69
2024/02/10 05:23:11;;;;;;;16.17;7.17;;;9.00;98.00;;;;;;5092880;28;20488;-69
2024/02/10 05:25:38;;;;;;;20.67;7.60;;;8.90;98.00;;;;;;5092492;28;20508;-69
2024/02/10 05:28:08;;;;;;;18.27;7.37;;;8.90;98.00;;;;;;5092526;28;20941;-69
2024/02/10 05:30:35;;;;;;;17.30;7.40;;;8.90;98.00;;;;;;5092498;28;20448;-69
2024/02/10 05:33:04;;;;;;;17.60;7.53;;;8.90;98.00;;;;;;5092555;28;20486;-69
2024/02/10 05:35:31;;;;;;;19.47;7.33;;;8.90;98.00;;;;;;5092288;28;20445;-69
2024/02/10 05:38:00;;;;;;;21.20;8.33;;;8.90;98.00;;;;;;5092426;28;20452;-68
2024/02/10 05:40:28;;;;;;;17.23;7.60;;;8.90;98.00;;;;;;5092381;28;20456;-69
2024/02/10 05:42:58;;;;;;;25.00;8.00;;;8.70;98.00;;;;;;5092326;28;20463;-69
2024/02/10 05:45:26;;;;;;;21.50;7.50;;;8.70;98.00;;;;;;5092297;28;20491;-69
2024/02/10 05:47:54;;;;;;;21.50;7.87;;;8.80;98.00;;;;;;5074444;28;20454;-69
2024/02/10 05:50:27;;;;;;;20.07;7.90;;;8.80;98.00;;;;;;5092044;28;20448;-69
2024/02/10 05:52:57;;;;;;;21.40;8.10;;;8.80;98.00;;;;;;5092092;28;20452;-69
2024/02/10 05:55:26;;;;;;;18.63;7.13;;;8.80;98.00;;;;;;5091826;28;20447;-69
2024/02/10 05:57:55;;;;;;;16.60;7.30;;;8.80;98.00;;;;;;5092155;28;20451;-69
2024/02/10 06:00:24;;;;;;;21.07;8.77;;;8.80;98.00;;;;;;5092206;28;20451;-69
2024/02/10 06:02:52;;;;;;;17.60;7.90;;;8.80;98.00;;;;;;5092154;28;20455;-69
2024/02/10 06:05:19;;;;;;;23.80;8.17;;;8.70;98.00;;;;;;5092197;28;20481;-69
2024/02/10 06:07:48;;;;;;;19.10;7.80;;;8.70;98.00;;;;;;5092261;28;20452;-69
2024/02/10 06:10:16;;;;;;;20.57;7.80;;;8.80;98.00;;;;;;5092205;28;20449;-70
2024/02/10 06:12:48;;;;;;;23.37;9.27;;;8.80;98.00;;;;;;5092121;28;20449;-68
2024/02/10 06:15:18;;;;;;;18.30;7.67;;;8.80;98.00;;;;;;5092147;28;20977;-69
2024/02/10 06:17:47;;;;;;;24.07;7.90;;;8.80;98.00;;;;;;5092040;28;20451;-69
2024/02/10 06:20:15;;;;;;;20.13;8.43;;;8.90;98.00;;;;;;5092191;28;20490;-69
2024/02/10 06:22:46;;;;;;;20.43;8.23;;;8.80;98.00;;;;;;5092226;28;20493;-68
2024/02/10 06:25:15;;;;;;;16.97;7.60;;;8.80;98.00;;;;;;5092060;28;20527;-69
2024/02/10 06:27:45;;;;;;;19.10;8.20;;;8.80;98.00;;;;;;5092051;28;21040;-68
2024/02/10 06:30:13;;;;;;;19.73;8.37;;;8.90;98.00;;;;;;5092029;28;20459;-69
2024/02/10 06:32:41;;;;;;;21.50;8.30;;;8.90;98.00;;;;;;5092174;28;20809;-69
2024/02/10 06:35:09;;;;;;;22.23;8.70;;;8.90;98.00;;;;;;5092220;28;20509;-68
2024/02/10 06:37:37;;;;;;;23.63;8.10;;;8.90;98.00;;;;;;5090066;28;20556;-69
2024/02/10 06:40:08;;;;;;;22.33;9.70;;;8.90;98.00;;;;;;5092147;28;20459;-69
2024/02/10 06:42:37;;;;;;;21.43;8.37;;;8.80;98.00;;;;;;5092012;28;20479;-69
2024/02/10 06:45:08;;;;;;;22.97;8.23;;;8.90;98.00;;;;;;5092162;28;20900;-69
2024/02/10 06:47:36;;;;;;;19.90;8.13;;;8.90;98.00;;;;;;5092079;28;20461;-69
2024/02/10 06:50:04;;;;;;;21.03;8.47;;;8.90;98.00;;;;;;5091696;28;20452;-69
2024/02/10 06:52:34;;;;;;;19.70;8.17;;;8.90;98.00;;;;;;5091781;28;20523;-69
2024/02/10 06:55:01;;;;;;;19.00;7.70;;;8.90;98.00;;;;;;5091638;28;20452;-69
2024/02/10 06:57:29;;;;;;;20.97;8.63;;;8.90;98.00;;;;;;5091476;28;20452;-68
2024/02/10 06:59:57;;;;;;;23.40;8.03;;;9.00;98.00;;;;;;5091756;28;20942;-64
2024/02/10 07:02:24;;;;;;;19.07;7.60;;;9.10;98.00;;;;;;5091727;28;20514;-64
2024/02/10 07:04:55;;;;;;;18.00;7.77;;;9.10;98.00;;;;;;5091968;28;20482;-64
2024/02/10 07:07:24;;;;;;;18.47;8.03;;;9.10;98.00;;;;;;5095388;28;20452;-64
2024/02/10 07:09:52;;;;;;;22.03;8.20;;;9.20;98.00;;;;;;5094788;28;20810;-64
2024/02/10 07:12:20;;;;;;;17.90;8.17;;;9.00;98.00;;;;;;5095414;28;20453;-64
2024/02/10 07:14:48;;;;;;;19.70;8.23;;;9.00;98.00;;;;;;5095368;28;20446;-63
2024/02/10 07:17:16;;;;;;;21.20;8.40;;;9.00;98.00;;;;;;5077492;28;20449;-65
2024/02/10 07:19:45;;;;;;;15.70;7.17;;;9.00;98.00;;;;;;5095138;28;20948;-64
2024/02/10 07:22:12;;;;;;;20.40;8.00;;;9.00;98.00;;;;;;5094735;28;20452;-64
2024/02/10 07:24:40;;;;;;;19.13;8.50;;;9.00;98.00;;;;;;5095073;28;20472;-64
2024/02/10 07:27:07;;;;;;;16.90;7.93;;;9.00;98.00;;;;;;5095170;28;20794;-65
2024/02/10 07:29:35;;;;;;;21.00;8.37;;;9.10;98.00;;;;;;5095138;28;20445;-64
2024/02/10 07:32:10;;;;;;;20.50;8.17;;;9.10;98.00;;;;;;5095287;28;20814;-64
2024/02/10 07:34:48;;;;;;;24.43;9.07;;;9.20;98.00;;;;;;5094258;28;20995;-64
2024/02/10 07:37:15;;;;;;;24.70;8.70;;;9.10;98.00;;;;;;5094937;28;20455;-64
2024/02/10 07:39:48;;;;;;;22.23;8.30;;;9.10;98.00;;;;;;5094906;28;20455;-64
2024/02/10 07:42:15;;;;;;;21.10;8.00;;;9.20;98.00;;;;;;5094975;28;20478;-64
2024/02/10 07:44:42;;;;;;;24.90;9.33;;;9.30;98.00;;;;;;5094749;28;20463;-64
2024/02/10 07:47:10;;;;;;;21.07;9.23;;;9.40;98.00;;;;;;5094441;28;20453;-63
2024/02/10 07:49:46;;;;;;;22.33;7.60;;;9.40;98.00;;;;;;5094787;28;20514;-64
2024/02/10 07:52:13;;;;;;;18.70;8.03;;;9.40;98.00;;;;;;5094773;28;20468;-64
2024/02/10 07:54:41;;;;;;;18.53;7.10;;;9.50;98.00;;;;;;5094006;28;20478;-64
2024/02/10 07:57:15;;;;;;;20.10;7.60;;;9.50;98.00;;;;;;5094476;28;20448;-64
2024/02/10 07:59:42;;;;;;;24.37;9.07;;;9.50;98.00;;;;;;5094363;28;20456;-64
2024/02/10 08:02:16;;;;;;;24.10;8.90;;;9.50;98.00;;;;;;5094577;28;20457;-64
2024/02/10 08:04:45;;;;;;;26.93;9.37;;;9.60;98.00;;;;;;5094308;28;20456;-64
2024/02/10 08:07:12;;;;;;;27.20;9.60;;;9.70;98.00;;;;;;5094546;28;20457;-64
2024/02/10 08:09:39;;;;;;;27.00;10.53;;;9.80;98.00;;;;;;5094139;28;20453;-64
2024/02/10 08:12:07;;;;;;;26.03;9.77;;;9.80;98.00;;;;;;5094259;28;20449;-64
2024/02/10 08:14:36;;;;;;;21.07;8.70;;;9.80;98.00;;;;;;5094090;28;20459;-64
2024/02/10 08:17:07;;;;;;;19.50;8.43;;;9.70;98.00;;;;;;5093694;28;20474;-64
2024/02/10 08:19:35;;;;;;;28.43;9.20;;;9.70;98.00;;;;;;5076616;28;20479;-64
2024/02/10 08:22:07;;;;;;;22.33;9.20;;;9.70;98.00;;;;;;5094522;28;20563;-64
2024/02/10 08:24:35;;;;;;;23.80;8.90;;;9.70;98.00;;;;;;5094149;28;20455;-64
2024/02/10 08:27:03;;;;;;;25.00;9.37;;;9.80;98.00;;;;;;5094220;28;20502;-64
2024/02/10 08:29:33;;;;;;;23.33;8.90;;;9.80;98.00;;;;;;5093923;28;20991;-64
2024/02/10 08:32:04;;;;;;;24.63;9.40;;;9.80;98.00;;;;;;5094117;28;20456;-64
2024/02/10 08:34:35;;;;;;;28.93;9.60;;;9.80;98.00;;;;;;5075067;28;20803;-64
2024/02/10 08:37:04;;;;;;;23.00;8.90;;;9.90;98.00;;;;;;5093743;28;20484;-64
2024/02/10 08:39:32;;;;;;;28.33;9.80;;;10.10;98.00;;;;;;5093671;28;20474;-64
2024/02/10 08:42:01;;;;;;;24.87;9.77;;;10.10;98.00;;;;;;5093737;28;20479;-64
2024/02/10 08:44:29;;;;;;;22.23;8.90;;;10.00;98.00;;;;;;5093618;28;20465;-64
2024/02/10 08:46:56;;;;;;;25.63;9.83;;;10.00;98.00;;;;;;5093128;28;20488;-64
2024/02/10 08:49:23;;;;;;;21.40;9.47;;;10.00;98.00;;;;;;5093620;28;20469;-64
2024/02/10 08:51:53;;;;;;;23.50;9.63;;;10.00;98.00;;;;;;5093305;28;20461;-64
2024/02/10 08:54:30;;;;;;;32.10;9.97;;;10.20;98.00;;;;;;5093954;28;20451;-64
2024/02/10 08:56:59;;;;;;;24.00;8.73;;;10.20;98.00;;;;;;5093104;28;20488;-64
2024/02/10 08:59:31;;;;;;;25.13;9.73;;;10.10;98.00;;;;;;5075557;28;20448;-64
2024/02/10 09:02:00;;;;;;;22.03;8.70;;;10.00;98.00;;;;;;5093325;28;20535;-64
2024/02/10 09:04:28;;;;;;;17.13;7.70;;;10.10;98.00;;;;;;5093204;28;20476;-64
2024/02/10 09:06:55;;;;;;;18.70;7.93;;;10.00;98.00;;;;;;5092860;28;20517;-64
2024/02/10 09:09:27;;;;;;;18.13;7.83;;;10.10;98.00;;;;;;5070232;28;20485;-64
2024/02/10 09:11:55;;;;;;;18.10;7.63;;;10.20;98.00;;;;;;5492395;22;20495;-64
2024/02/10 09:14:22;;;;;;;21.83;8.70;;;10.20;98.00;;;;;;5080235;28;20470;-64
2024/02/10 09:16:49;;;;;;;19.70;7.40;;;10.30;98.00;;;;;;5076621;28;20460;-64
2024/02/10 09:19:18;;;;;;;22.70;8.20;;;10.30;98.00;;;;;;5079283;28;20512;-64
2024/02/10 09:21:45;;;;;;;17.63;8.20;;;10.30;98.00;;;;;;5092045;28;20456;-64
2024/02/10 09:24:13;;;;;;;16.50;7.90;;;10.30;98.00;;;;;;5092184;28;20827;-64
2024/02/10 09:26:43;;;;;;;21.00;7.90;;;10.30;98.00;;;;;;5092100;28;21021;-64
2024/02/10 09:29:10;;;;;;;19.77;8.23;;;10.60;98.00;;;;;;5056793;28;20537;-65
2024/02/10 09:31:37;;;;;;;23.17;8.10;;;10.70;98.00;;;;;;5092286;28;20445;-65
2024/02/10 09:34:07;;;;;;;20.70;8.90;;;10.80;98.00;;;;;;5073930;28;20452;-65
2024/02/10 09:36:34;;;;;;;17.77;7.57;;;10.90;98.00;;;;;;5074378;28;20975;-65
2024/02/10 09:39:03;;;;;;;19.10;7.90;;;10.80;98.00;;;;;;5092089;28;21005;-64
2024/02/10 09:41:30;;;;;;;23.10;8.37;;;10.70;98.00;;;;;;5091940;28;20449;-64
2024/02/10 09:43:59;;;;;;;19.33;8.67;;;10.60;98.00;;;;;;5091950;28;20459;-64
2024/02/10 09:46:26;;;;;;;23.97;9.53;;;10.40;98.00;;;;;;5091757;28;20491;-64
2024/02/10 09:48:54;;;;;;;23.37;8.50;;;10.40;98.00;;;;;;5091574;28;20451;-64
2024/02/10 09:51:22;;;;;;;20.90;8.30;;;10.30;98.00;;;;;;5090677;28;20536;-64
2024/02/10 09:53:49;;;;;;;23.40;8.60;;;10.30;98.00;;;;;;5091659;28;20810;-64
2024/02/10 09:56:16;;;;;;;21.17;8.07;;;10.30;98.00;;;;;;5091726;28;20449;-64
2024/02/10 09:58:46;;;;;;;21.83;8.43;;;10.30;98.00;;;;;;5091572;28;20459;-64
2024/02/10 10:01:15;;;;;;;18.37;8.57;;;10.30;98.00;;;;;;5091633;28;20448;-64
2024/02/10 10:03:42;;;;;;;23.10;9.30;;;10.40;98.00;;;;;;5091362;28;20968;-64
2024/02/10 10:06:10;;;;;;;21.03;8.90;;;10.40;98.00;;;;;;5091520;28;20487;-64
2024/02/10 10:08:38;;;;;;;22.87;8.67;;;10.40;98.00;;;;;;5091131;28;20494;-64
2024/02/10 10:11:06;;;;;;;20.60;8.30;;;10.40;98.00;;;;;;5091473;28;20460;-64
2024/02/10 10:13:37;;;;;;;21.67;8.40;;;10.40;98.00;;;;;;5092213;28;20561;-64
2024/02/10 10:16:09;;;;;;;24.73;9.10;;;10.40;98.00;;;;;;5092234;28;20462;-64
2024/02/10 10:18:37;;;;;;;20.53;8.20;;;10.50;98.00;;;;;;5092131;28;20505;-64
2024/02/10 10:21:05;;;;;;;21.97;9.07;;;10.60;98.00;;;;;;5092359;28;20454;-64
2024/02/10 10:23:35;;;;;;;20.67;7.90;;;10.70;98.00;;;;;;5092420;28;20504;-64
2024/02/10 10:26:02;;;;;;;18.50;7.87;;;10.80;98.00;;;;;;5092241;28;20482;-64
2024/02/10 10:28:30;;;;;;;17.93;7.70;;;10.90;98.00;;;;;;5092018;28;20454;-64
2024/02/10 10:30:59;;;;;;;17.57;7.73;;;10.80;98.00;;;;;;5073467;28;20817;-64
2024/02/10 10:33:28;;;;;;;17.57;7.83;;;10.90;98.00;;;;;;5092063;28;20450;-64
2024/02/10 10:36:00;;;;;;;18.77;7.53;;;10.90;98.00;;;;;;5091495;28;20451;-64
2024/02/10 10:38:30;;;;;;;19.00;7.80;;;10.90;98.00;;;;;;5091856;28;20539;-64
2024/02/10 10:40:59;;;;;;;21.80;8.57;;;10.90;98.00;;;;;;5076335;28;20941;-64
2024/02/10 10:43:27;;;;;;;19.00;8.03;;;10.90;98.00;;;;;;5095973;28;20450;-64
2024/02/10 10:45:55;;;;;;;21.17;8.60;;;10.90;98.00;;;;;;5095668;28;20490;-64
2024/02/10 10:48:23;;;;;;;18.47;8.77;;;11.00;98.00;;;;;;5078043;28;20441;-64
2024/02/10 10:50:56;;;;;;;18.03;7.97;;;10.90;98.00;;;;;;5095776;28;20466;-64
2024/02/10 10:53:27;;;;;;;16.93;7.97;;;11.00;98.00;;;;;;5095951;28;20452;-64
2024/02/10 10:56:01;;;;;;;17.03;8.80;;;11.10;98.00;;;;;;5095826;28;20536;-64
2024/02/10 10:58:33;;;;;;;20.43;8.67;;;11.10;98.00;;;;;;5095755;28;20840;-64
2024/02/10 11:01:03;;;;;;;18.83;7.87;;;11.10;98.00;;;;;;5095196;28;20450;-63
2024/02/10 11:03:31;;;;;;;19.00;8.73;;;11.20;98.00;;;;;;5078019;28;20454;-64
2024/02/10 11:05:58;;;;;;;16.43;8.40;;;11.10;98.00;;;;;;5095497;28;20490;-64
2024/02/10 11:08:27;;;;;;;19.40;8.50;;;11.10;98.00;;;;;;5095649;28;20499;-64
2024/02/10 11:10:59;;;;;;;19.20;8.13;;;11.10;98.00;;;;;;5060747;28;20502;-64
2024/02/10 11:13:28;;;;;;;17.87;7.70;;;11.10;98.00;;;;;;5095422;28;20468;-64
2024/02/10 11:16:04;;;;;;;18.97;8.37;;;11.00;98.00;;;;;;5076417;28;20454;-64
2024/02/10 11:18:34;;;;;;;16.70;8.43;;;11.00;98.00;;;;;;5094929;28;20474;-64
2024/02/10 11:21:11;;;;;;;18.57;8.30;;;11.00;98.00;;;;;;5095198;28;20460;-64
2024/02/10 11:23:40;;;;;;;17.53;8.33;;;11.10;98.00;;;;;;5094920;28;20446;-64
2024/02/10 11:26:12;;;;;;;18.27;8.60;;;11.00;98.00;;;;;;5076918;28;20571;-64
2024/02/10 11:28:40;;;;;;;21.30;9.70;;;11.00;98.00;;;;;;5094313;28;20444;-64
2024/02/10 11:31:11;;;;;;;18.70;8.13;;;11.10;98.00;;;;;;5094680;28;20451;-64
2024/02/10 11:33:39;;;;;;;19.77;9.27;;;11.10;98.00;;;;;;5095120;28;20527;-64
2024/02/10 11:36:10;;;;;;;20.33;8.90;;;11.10;98.00;;;;;;5095001;28;20452;-64
2024/02/10 11:38:40;;;;;;;28.13;10.33;;;11.10;98.00;;;;;;5094708;28;20452;-64
2024/02/10 11:41:08;;;;;;;24.10;10.20;;;11.10;98.00;;;;;;5095026;28;20532;-64
2024/02/10 11:43:36;;;;;;;25.43;10.67;;;11.10;98.00;;;;;;5094827;28;20462;-64
2024/02/10 11:46:03;;;;;;;20.37;10.17;;;11.20;98.00;;;;;;5076848;28;20476;-65
2024/02/10 18:28:19;;;;;;;18.33;8.70;;;9.90;98.00;;;;;;5056741;28;20489;-69
2024/02/10 18:30:47;;;;;;;17.47;9.20;;;9.90;98.00;;;;;;5050662;28;20453;-68
2024/02/10 18:33:15;;;;;;;16.47;8.13;;;9.80;98.00;;;;;;5013999;28;20454;-68
2024/02/10 18:35:45;;;;;;;17.43;8.30;;;9.80;98.00;;;;;;5048301;28;20460;-69
2024/02/10 18:38:14;;;;;;;19.03;8.80;;;9.80;98.00;;;;;;5049921;28;20546;-69
2024/02/10 18:40:41;;;;;;;21.83;9.57;;;9.70;98.00;;;;;;5051168;28;20529;-68
2024/02/10 18:43:09;;;;;;;17.70;8.33;;;9.60;98.00;;;;;;5051813;28;20539;-69
2024/02/10 18:45:46;;;;;;;20.10;9.07;;;9.50;98.00;;;;;;5051596;28;20451;-68
2024/02/10 18:48:15;;;;;;;19.20;9.57;;;9.50;98.00;;;;;;5051599;28;20481;-68
2024/02/10 18:50:43;;;;;;;23.33;10.13;;;9.50;98.00;;;;;;5051637;28;20478;-69
2024/02/10 18:53:10;;;;;;;18.83;8.43;;;9.50;98.00;;;;;;5051594;28;20491;-68
2024/02/10 18:55:38;;;;;;;21.70;9.07;;;9.60;98.00;;;;;;5033817;28;20465;-68
2024/02/10 18:58:07;;;;;;;23.60;10.43;;;9.60;98.00;;;;;;5051652;28;20537;-68
2024/02/10 19:00:35;;;;;;;25.17;10.10;;;9.60;98.00;;;;;;5051641;28;20463;-68
2024/02/10 19:03:05;;;;;;;15.83;8.13;;;9.50;98.00;;;;;;5055845;28;20446;-68
2024/02/10 19:05:32;;;;;;;19.70;8.17;;;9.60;98.00;;;;;;5055733;28;20447;-68
2024/02/10 19:07:59;;;;;;;18.83;8.90;;;9.60;98.00;;;;;;5055277;28;20488;-68
2024/02/10 19:10:26;;;;;;;17.77;7.33;;;9.60;98.00;;;;;;5055477;28;20539;-68
2024/02/10 19:12:54;;;;;;;14.90;7.10;;;9.70;98.00;;;;;;5055348;28;20473;-68
2024/02/10 19:15:21;;;;;;;16.13;7.70;;;9.80;98.00;;;;;;5055058;28;20477;-68
2024/02/10 19:17:49;;;;;;;17.10;7.83;;;9.80;98.00;;;;;;5037384;28;20446;-68
2024/02/10 19:20:20;;;;;;;20.27;8.73;;;9.80;98.00;;;;;;5037838;28;20527;-68
2024/02/10 19:22:47;;;;;;;18.67;8.50;;;9.60;98.00;;;;;;5054877;28;20453;-68
2024/02/10 19:25:19;;;;;;;37.23;9.10;;;9.60;98.00;;;;;;5054393;28;20510;-68
2024/02/10 19:27:47;;;;;;;21.00;8.80;;;9.70;98.00;;;;;;5054614;28;20507;-69
2024/02/10 19:30:15;;;;;;;17.77;9.00;;;9.60;98.00;;;;;;5055195;28;20456;-68